Archival Weather

Porter County Rgnl

Valparaiso, Indiana (KVPZ)

Report from: Monday, December 11, 2023 1:56 PM CST
Current time: Wednesday, April 24, 2024 12:51 PM CDT

Current weather – Weather history – Daily summaries
Weather forecast

Temperature1.1°C (34.0°F)
Wind chill-3.9°C (25.0°F)
Dew point-5.6°C (21.9°F)
Winds 11 kts (5.7 m/s, 12.7 mph) West-Southwest (240°)
Visibility10 mi. (16.1 km)
Clouds Sky clear
Altimeter30.16 in.Hg (1021 mB)
Relative humidity61 %
Density altitude-1,934 ft. (-590 m)
Sea-level pressure102.2 kPa (1022 mB, 30.19 in.Hg)
Remarks Fully automated report
Automated weather observing station with precipitation discriminator
Flight conditions Visual Meteorological Conditions
Raw dataKVPZ 111956Z AUTO 24011KT 10SM CLR 01/M06 A3016 RMK AO2 SLP222 T00111056
An error has occurred. This application may no longer respond until reloaded. Reload 🗙